Aviation Digital Data Service (ADDS)

Output produced by TAFs form (2112 UTC 22 October 2017)
found at http://www.aviationweather.gov/adds/tafs/
 
KDHN 222053Z 12009KT 10SM FEW090 FEW100 29/18 A3006 RMK AO2 SLP173 T02940178 56027
KDHN 221723Z 2218/2318 14012KT P6SM SCT040 BKN250 
     FM222100 14006KT P6SM VCSH BKN050 
     FM230600 16006KT P6SM -TSRA OVC025CB 
     FM231500 27011KT P6SM BKN040